CheckWX is a tool to help pilots better visualize weather data.  It is not intended as a substitute for an official pre-flight weather briefing.

03:21:09 UTC

LJCE METAR
Cerklje Airport
Cerklje ob Krki, Slovenia
Current

21 mins ago

LJCE 120300Z AUTO 14001KT 9999 FEW034/// 15/13 Q1023
Observed
Jul-12 @ 03:00 UTC
Wind
  • 140° at 1 KTS
Visibility
10,000+ meters
Flight Rules
VFR
Cloud Levels
  • Few at 3,400' AGL
Temperature
15°C / 59°F
Dewpoint
13°C / 55°F
Humidity
88%
Altimeter
30.21" Hg
Pressure
1022.92 hPa
Previous

51 mins ago

LJCE 120230Z AUTO 00000KT 9999 SCT034/// BKN110/// 15/14 Q1023
Observed
Jul-12 @ 02:30 UTC
Visibility
10,000+ meters
Flight Rules
VFR
Cloud Levels
  • Scattered at 3,400' AGL
  • Broken at 11,000' AGL
Temperature
15°C / 59°F
Dewpoint
14°C / 57°F
Humidity
94%
Altimeter
30.21" Hg
Pressure
1022.92 hPa
Previous

1 hour ago

LJCE 120200Z AUTO 14003KT 9999 FEW029/// BKN053/// 15/14 Q1023
Observed
Jul-12 @ 02:00 UTC
Wind
  • 140° at 3 KTS
Visibility
10,000+ meters
Flight Rules
VFR
Cloud Levels
  • Few at 2,900' AGL
  • Broken at 5,300' AGL
Temperature
15°C / 59°F
Dewpoint
14°C / 57°F
Humidity
94%
Altimeter
30.21" Hg
Pressure
1022.92 hPa